Terminal Aerodrome Forecast
Issued by NWS

Home | Current Version | Previous Version | Text Only | Print | Product List | Glossary On
Versions: 1 2 3 4 5 6 7 8 9 10 11 12 13 14 15 16 17 18 19 20 21 22 23
000
FTUS44 KFWD 262100 AAA
TAFGKY
TAF AMD
KGKY 262103Z 2621/2718 16014KT P6SM SCT015 BKN025
     FM270400 18005KT 4SM BR BKN007 OVC012
     FM270800 32016KT 6SM BR OVC012
     FM271500 33017KT P6SM OVC025=

USA.gov is the U.S. government's official web portal to all federal, state and local government web resources and services.